Time;durP1;ratioP1;P1;durP2;ratioP2;P2;SDS_P1;SDS_P2;PMS_P1;PMS_P2;Temp;Humidity;BMP_temperature;BMP_pressure;BME280_temperature;BME280_humidity;BME280_pressure;Samples;Min_cycle;Max_cycle;Signal;HPM_P1;HPM_P2
2021/10/12 00:02:02;;;;;;;55.60;20.37;;;;;;;10.89;89.36;96922.16;4997741;28;21185;-71
2021/10/12 00:04:29;;;;;;;50.43;20.17;;;;;;;10.91;89.67;96915.72;4998773;28;20253;-71
2021/10/12 00:06:55;;;;;;;52.00;20.07;;;;;;;10.97;89.04;96915.91;4998056;28;20623;-70
2021/10/12 00:09:22;;;;;;;47.37;18.10;;;;;;;10.98;88.90;96917.56;4997929;28;20591;-71
2021/10/12 00:11:52;;;;;;;48.33;19.33;;;;;;;11.11;89.10;96909.16;4998208;28;20222;-72
2021/10/12 00:14:18;;;;;;;41.93;18.13;;;;;;;10.90;88.90;96913.28;4998173;28;20789;-71
2021/10/12 00:16:45;;;;;;;48.73;19.33;;;;;;;10.89;89.27;96911.59;4997463;28;20210;-70
2021/10/12 00:19:12;;;;;;;48.70;18.23;;;;;;;10.87;89.75;96903.88;4997850;28;20237;-70
2021/10/12 00:21:38;;;;;;;44.17;17.70;;;;;;;10.77;89.19;96908.47;4998384;28;20670;-71
2021/10/12 00:24:05;;;;;;;51.87;19.33;;;;;;;10.94;89.06;96908.31;4998059;28;20249;-71
2021/10/12 00:26:32;;;;;;;46.60;18.97;;;;;;;10.85;89.96;96916.38;4996913;28;20671;-70
2021/10/12 00:29:00;;;;;;;47.00;17.97;;;;;;;11.06;89.83;96912.28;4997849;28;20207;-71
2021/10/12 00:31:26;;;;;;;51.23;19.73;;;;;;;10.94;89.47;96910.94;4997861;28;20222;-70
2021/10/12 00:33:53;;;;;;;47.67;18.73;;;;;;;10.95;89.67;96906.50;4996847;28;20234;-70
2021/10/12 00:36:19;;;;;;;49.43;19.60;;;;;;;11.04;89.52;96911.63;4996704;28;20296;-71
2021/10/12 00:38:46;;;;;;;44.50;18.37;;;;;;;10.92;90.44;96906.00;4997846;28;20198;-71
2021/10/12 00:41:12;;;;;;;51.37;19.70;;;;;;;10.95;90.31;96904.69;4997320;28;20210;-71
2021/10/12 00:43:39;;;;;;;48.73;18.97;;;;;;;10.98;90.39;96901.75;4996853;28;20792;-71
2021/10/12 00:46:07;;;;;;;49.47;19.10;;;;;;;11.17;90.63;96906.69;4996571;28;20249;-70
2021/10/12 00:48:33;;;;;;;47.23;19.27;;;;;;;11.07;90.05;96899.91;4997042;28;20686;-70
2021/10/12 00:51:00;;;;;;;48.73;18.40;;;;;;;10.94;90.63;96892.47;4997345;28;20230;-70
2021/10/12 00:53:26;;;;;;;45.60;19.53;;;;;;;11.02;90.41;96881.97;4997516;28;20694;-71
2021/10/12 00:55:53;;;;;;;45.37;19.00;;;;;;;11.10;90.00;96879.31;4996490;28;20233;-70
2021/10/12 00:58:20;;;;;;;48.07;18.73;;;;;;;10.99;90.29;96879.63;4997806;28;20581;-71
2021/10/12 01:00:46;;;;;;;48.53;19.27;;;;;;;10.95;90.12;96891.50;4997271;28;20206;-71
2021/10/12 01:03:14;;;;;;;49.90;20.03;;;;;;;11.15;90.28;96882.28;4997427;28;20213;-71
2021/10/12 01:05:40;;;;;;;45.70;18.87;;;;;;;11.03;90.37;96875.69;4997228;28;20722;-71
2021/10/12 01:08:07;;;;;;;46.23;19.07;;;;;;;11.08;90.04;96880.47;4996836;28;20202;-70
2021/10/12 01:10:34;;;;;;;47.10;18.43;;;;;;;11.10;90.05;96883.78;4997078;28;20218;-70
2021/10/12 01:13:01;;;;;;;45.40;19.30;;;;;;;11.24;90.01;96881.31;4997580;28;20226;-70
2021/10/12 01:15:28;;;;;;;40.70;17.80;;;;;;;11.08;90.16;96876.00;4996823;28;20316;-70
2021/10/12 01:17:54;;;;;;;42.80;18.07;;;;;;;11.08;90.29;96881.28;4996373;28;20210;-71
2021/10/12 01:20:24;;;;;;;45.87;18.30;;;;;;;11.16;91.08;96872.56;4997151;28;20214;-70
2021/10/12 01:22:53;;;;;;;45.00;18.63;;;;;;;11.24;90.29;96878.66;4997699;28;20202;-70
2021/10/12 01:25:19;;;;;;;48.93;19.17;;;;;;;11.02;90.41;96876.69;4997285;28;20222;-70
2021/10/12 01:27:46;;;;;;;48.87;19.07;;;;;;;11.10;90.41;96868.78;4995565;28;20647;-70
2021/10/12 01:30:13;;;;;;;42.53;18.07;;;;;;;11.28;90.48;96871.25;4996811;28;20206;-71
2021/10/12 01:32:41;;;;;;;45.30;17.80;;;;;;;11.22;90.56;96864.00;4997446;28;20225;-70
2021/10/12 01:35:09;;;;;;;46.73;19.10;;;;;;;11.18;90.71;96855.56;4996392;28;20797;-71
2021/10/12 01:37:37;;;;;;;47.90;18.13;;;;;;;11.12;90.22;96853.59;4995521;28;20206;-71
2021/10/12 01:40:07;;;;;;;47.77;19.00;;;;;;;11.34;90.15;96850.31;4996901;28;20210;-71
2021/10/12 01:42:33;;;;;;;50.57;18.50;;;;;;;11.02;89.88;96854.75;4994473;28;20199;-71
2021/10/12 01:45:01;;;;;;;53.60;19.87;;;;;;;11.16;90.08;96854.94;4998073;28;20229;-71
2021/10/12 01:47:29;;;;;;;56.00;20.80;;;;;;;11.08;89.96;96854.09;5000051;28;20198;-70
2021/10/12 01:49:56;;;;;;;47.07;19.23;;;;;;;11.09;90.08;96848.66;5000587;28;20317;-70
2021/10/12 01:52:22;;;;;;;47.43;18.40;;;;;;;11.15;90.07;96852.44;5000274;28;20241;-71
2021/10/12 01:54:49;;;;;;;50.80;18.73;;;;;;;11.05;90.13;96852.63;5000620;28;20226;-71
2021/10/12 01:57:18;;;;;;;50.50;19.43;;;;;;;11.27;90.02;96844.03;5000318;28;20210;-70
2021/10/12 01:59:45;;;;;;;50.40;20.43;;;;;;;11.14;89.72;96846.34;5000432;28;20199;-70
2021/10/12 02:02:12;;;;;;;56.77;21.97;;;;;;;11.12;90.01;96845.69;5000615;28;20203;-70
2021/10/12 02:04:39;;;;;;;60.27;21.57;;;;;;;11.18;89.76;96834.47;5000195;28;20234;-70
2021/10/12 02:07:05;;;;;;;57.30;22.13;;;;;;;11.20;89.77;96836.94;5000004;28;20210;-71
2021/10/12 02:09:32;;;;;;;59.00;22.00;;;;;;;11.09;89.95;96835.47;5000719;28;20209;-71
2021/10/12 02:11:59;;;;;;;53.67;20.97;;;;;;;11.14;89.92;96832.34;5000372;28;20703;-71
2021/10/12 02:14:27;;;;;;;52.60;20.73;;;;;;;11.28;90.41;96839.59;4999890;28;20498;-70
2021/10/12 02:16:54;;;;;;;58.83;21.73;;;;;;;11.13;90.11;96831.50;4997066;28;20221;-71
2021/10/12 02:19:20;;;;;;;59.53;21.83;;;;;;;11.12;89.82;96831.66;5000585;28;20226;-70
2021/10/12 02:21:46;;;;;;;59.87;22.60;;;;;;;11.17;89.19;96840.72;5000416;28;20195;-71
2021/10/12 02:24:13;;;;;;;52.07;20.73;;;;;;;11.09;89.76;96824.91;5000351;28;20222;-70
2021/10/12 02:26:40;;;;;;;57.00;20.90;;;;;;;11.06;90.18;96825.25;4999720;28;20209;-70
2021/10/12 02:29:06;;;;;;;59.10;21.97;;;;;;;11.11;89.73;96822.94;4999807;28;20215;-71
2021/10/12 02:31:34;;;;;;;54.97;20.60;;;;;;;11.26;90.15;96809.91;5000331;28;20230;-70
2021/10/12 02:34:01;;;;;;;52.70;19.77;;;;;;;11.07;89.60;96816.38;4999845;28;20226;-71
2021/10/12 02:36:27;;;;;;;49.07;19.80;;;;;;;11.01;89.34;96808.28;4999760;28;20203;-71
2021/10/12 02:38:54;;;;;;;53.37;19.77;;;;;;;11.02;89.10;96797.56;5000213;28;20203;-70
2021/10/12 02:41:20;;;;;;;51.93;19.90;;;;;;;10.89;89.45;96791.13;4997522;28;20618;-71
2021/10/12 02:43:47;;;;;;;50.47;19.23;;;;;;;10.99;89.06;96797.06;4999672;28;20199;-71
2021/10/12 02:46:13;;;;;;;43.83;18.57;;;;;;;10.96;89.34;96786.88;4999496;28;20202;-70
2021/10/12 02:48:41;;;;;;;53.27;19.50;;;;;;;11.09;89.48;96793.25;4999240;28;20546;-70
2021/10/12 02:51:07;;;;;;;50.77;19.83;;;;;;;10.85;89.62;96784.56;4999703;28;20582;-71
2021/10/12 02:53:34;;;;;;;50.80;19.90;;;;;;;10.85;89.46;96783.75;5000051;28;20219;-70
2021/10/12 02:56:00;;;;;;;51.83;20.57;;;;;;;10.82;89.17;96781.41;4998563;28;20206;-70
2021/10/12 02:58:27;;;;;;;49.77;20.03;;;;;;;10.77;89.39;96773.16;4998798;28;20198;-70
2021/10/12 03:00:53;;;;;;;49.00;19.80;;;;;;;10.68;89.76;96769.72;4999513;28;20214;-70
2021/10/12 03:03:19;;;;;;;52.67;19.47;;;;;;;10.77;89.06;96760.00;4999428;28;20199;-71
2021/10/12 03:05:47;;;;;;;43.83;18.87;;;;;;;10.94;88.95;96760.63;4999008;28;20246;-70
2021/10/12 03:08:14;;;;;;;47.27;18.67;;;;;;;10.72;89.37;96770.22;4999230;28;20302;-71
2021/10/12 03:10:41;;;;;;;50.03;19.37;;;;;;;10.86;89.54;96764.28;4998850;28;20293;-70
2021/10/12 03:13:07;;;;;;;52.23;19.90;;;;;;;10.73;89.73;96770.06;4999142;28;20222;-71
2021/10/12 03:15:34;;;;;;;50.57;19.73;;;;;;;10.84;89.88;96753.91;4998612;28;20230;-71
2021/10/12 03:18:00;;;;;;;52.03;19.67;;;;;;;10.87;89.72;96745.69;4999233;28;20225;-70
2021/10/12 03:20:27;;;;;;;53.40;18.93;;;;;;;10.87;89.75;96750.09;4999362;28;20209;-71
2021/10/12 03:22:55;;;;;;;48.77;19.13;;;;;;;11.06;90.14;96756.69;4998810;28;20211;-71
2021/10/12 03:25:21;;;;;;;52.10;20.43;;;;;;;10.76;90.62;96758.38;4998654;28;20233;-70
2021/10/12 03:27:48;;;;;;;54.47;20.57;;;;;;;10.73;90.93;96759.53;4998810;28;21289;-70
2021/10/12 03:30:14;;;;;;;65.47;21.57;;;;;;;10.70;91.19;96754.56;4999072;28;20214;-71
2021/10/12 03:32:41;;;;;;;56.33;22.30;;;;;;;10.84;90.95;96739.91;4999073;28;20246;-71
2021/10/12 03:35:08;;;;;;;60.37;21.53;;;;;;;11.03;90.62;96733.25;4999072;28;20222;-71
2021/10/12 03:37:34;;;;;;;58.83;22.33;;;;;;;10.90;90.53;96724.25;4998093;28;20209;-71
2021/10/12 03:40:02;;;;;;;59.43;21.77;;;;;;;11.11;90.75;96730.63;4999030;28;20214;-71
2021/10/12 03:42:28;;;;;;;49.73;20.70;;;;;;;10.88;90.47;96723.56;4995606;28;20198;-70
2021/10/12 03:44:55;;;;;;;51.50;21.17;;;;;;;10.90;90.17;96720.78;4998467;28;20226;-70
2021/10/12 03:47:21;;;;;;;54.30;21.40;;;;;;;10.78;90.46;96715.03;4997271;28;20213;-71
2021/10/12 03:49:48;;;;;;;61.20;21.27;;;;;;;10.83;90.36;96717.16;4998234;28;20202;-71
2021/10/12 03:52:14;;;;;;;50.87;21.23;;;;;;;10.72;90.45;96712.25;4997420;28;20230;-70
2021/10/12 03:54:41;;;;;;;58.27;21.47;;;;;;;10.68;91.26;96713.53;4997649;28;20617;-71
2021/10/12 03:57:08;;;;;;;53.93;20.97;;;;;;;10.98;90.71;96698.69;4997171;28;20229;-70
2021/10/12 03:59:35;;;;;;;59.13;21.50;;;;;;;10.73;90.18;96691.00;4998083;28;20226;-70
2021/10/12 04:02:01;;;;;;;55.13;21.67;;;;;;;10.58;90.87;96699.75;4997307;28;20229;-70
2021/10/12 04:04:28;;;;;;;55.60;21.20;;;;;;;10.60;91.12;96701.22;4997910;28;20222;-70
2021/10/12 04:06:54;;;;;;;52.37;22.10;;;;;;;10.69;91.07;96696.75;4996409;28;20211;-70
2021/10/12 04:09:21;;;;;;;60.57;21.93;;;;;;;10.61;91.66;96699.41;4997590;28;20737;-71
2021/10/12 04:11:47;;;;;;;58.73;22.87;;;;;;;10.71;91.02;96697.41;4997476;28;20697;-70
2021/10/12 04:14:15;;;;;;;65.40;22.30;;;;;;;10.86;91.23;96703.63;4997214;28;20237;-71
2021/10/12 04:16:41;;;;;;;62.77;23.90;;;;;;;10.77;90.78;96707.28;4996486;28;20214;-71
2021/10/12 04:19:08;;;;;;;59.40;22.63;;;;;;;10.68;91.17;96703.84;4997213;28;20206;-71
2021/10/12 04:21:34;;;;;;;58.17;23.43;;;;;;;10.83;90.55;96703.97;4996929;28;20206;-70
2021/10/12 04:24:01;;;;;;;54.73;22.57;;;;;;;10.84;90.84;96690.63;4997639;28;20317;-70
2021/10/12 04:26:27;;;;;;;58.60;22.90;;;;;;;10.85;90.72;96673.00;4996793;28;20213;-71
2021/10/12 04:28:54;;;;;;;64.53;24.50;;;;;;;10.88;90.61;96673.47;4997296;28;20454;-70
2021/10/12 04:31:22;;;;;;;60.53;22.20;;;;;;;11.09;90.83;96679.84;4997290;28;20693;-70
2021/10/12 04:33:48;;;;;;;58.63;22.23;;;;;;;10.87;90.78;96684.19;4996400;28;20227;-70
2021/10/12 04:36:15;;;;;;;61.80;22.90;;;;;;;10.86;91.32;96695.72;4996018;28;20681;-71
2021/10/12 04:38:41;;;;;;;57.23;23.10;;;;;;;10.88;90.94;96697.19;4997307;28;20571;-70
2021/10/12 04:41:09;;;;;;;64.67;22.97;;;;;;;10.98;91.05;96696.06;4996818;28;20213;-70
2021/10/12 04:43:36;;;;;;;62.13;24.10;;;;;;;10.88;91.84;96694.56;4994355;28;20213;-71
2021/10/12 04:46:03;;;;;;;72.67;25.23;;;;;;;10.86;91.28;96695.72;4996384;28;20211;-70
2021/10/12 04:48:31;;;;;;;59.77;23.93;;;;;;;11.10;91.48;96693.88;4996879;28;20559;-70
2021/10/12 04:50:57;;;;;;;60.07;23.60;;;;;;;10.93;90.57;96692.25;4996514;28;20965;-70
2021/10/12 04:53:24;;;;;;;62.27;25.43;;;;;;;11.01;90.87;96690.44;4996286;28;20241;-70
2021/10/12 04:55:50;;;;;;;65.43;25.30;;;;;;;10.98;90.54;96701.31;4996446;28;20231;-70
2021/10/12 04:58:17;;;;;;;58.70;23.57;;;;;;;10.93;90.90;96694.06;4997147;28;20727;-70
2021/10/12 05:00:43;;;;;;;62.67;22.93;;;;;;;10.85;91.34;96694.09;4996685;28;20206;-70
2021/10/12 05:03:10;;;;;;;59.70;24.10;;;;;;;10.98;90.87;96696.06;4995708;28;20702;-70
2021/10/12 05:05:38;;;;;;;64.37;24.73;;;;;;;11.11;91.20;96696.34;4996028;28;20715;-71
2021/10/12 05:08:05;;;;;;;58.37;23.17;;;;;;;10.98;90.58;96690.78;4995769;28;20619;-70
2021/10/12 05:10:31;;;;;;;59.63;23.47;;;;;;;10.95;90.93;96690.28;4996691;28;20212;-70
2021/10/12 05:12:58;;;;;;;61.97;23.43;;;;;;;10.95;90.68;96679.75;4996437;28;20420;-70
2021/10/12 05:15:26;;;;;;;58.93;23.90;;;;;;;11.07;90.03;96687.13;4995935;28;21217;-71
2021/10/12 05:17:52;;;;;;;58.13;23.10;;;;;;;11.06;90.18;96680.19;4996000;28;20982;-71
2021/10/12 05:20:19;;;;;;;55.77;22.93;;;;;;;10.91;91.00;96680.22;4996211;28;20205;-70
2021/10/12 05:22:47;;;;;;;60.47;23.30;;;;;;;11.19;90.80;96683.13;4996033;28;20207;-70
2021/10/12 05:25:14;;;;;;;73.83;28.20;;;;;;;10.97;91.10;96675.94;4996057;28;20587;-70
2021/10/12 05:27:41;;;;;;;72.03;27.80;;;;;;;11.08;91.10;96677.41;4995517;28;20202;-71
2021/10/12 05:30:09;;;;;;;69.00;25.70;;;;;;;11.14;91.16;96664.34;4996243;28;20221;-70
2021/10/12 05:32:37;;;;;;;62.50;24.67;;;;;;;11.05;91.09;96667.19;4996021;28;20590;-71
2021/10/12 05:35:04;;;;;;;68.97;23.93;;;;;;;11.04;91.06;96663.72;4996480;28;21038;-70
2021/10/12 05:37:30;;;;;;;59.73;24.63;;;;;;;11.04;90.84;96662.91;4995748;28;20675;-70
2021/10/12 05:39:58;;;;;;;59.70;24.67;;;;;;;11.18;91.36;96665.66;4996158;28;20213;-69
2021/10/12 05:42:25;;;;;;;70.53;24.77;;;;;;;10.93;91.33;96653.53;4993375;28;20203;-69
2021/10/12 05:44:51;;;;;;;62.50;25.07;;;;;;;11.04;90.89;96657.63;4996289;28;20230;-69
2021/10/12 05:47:18;;;;;;;67.17;27.60;;;;;;;11.01;91.11;96661.44;4995605;28;20214;-69
2021/10/12 05:49:44;;;;;;;62.07;23.47;;;;;;;10.88;91.01;96659.47;4995897;28;20768;-69
2021/10/12 05:52:14;;;;;;;57.83;22.73;;;;;;;10.95;90.52;96663.91;4996715;28;20217;-69
2021/10/12 05:54:47;;;;;;;61.80;23.13;;;;;;;10.93;90.66;96659.81;4995955;28;20353;-69
2021/10/12 05:57:21;;;;;;;57.07;22.97;;;;;;;11.04;91.07;96658.44;4995597;28;20203;-69
2021/10/12 05:59:48;;;;;;;60.00;23.53;;;;;;;11.07;90.54;96655.47;4995880;28;20348;-69
2021/10/12 06:02:14;;;;;;;59.80;23.83;;;;;;;11.19;89.81;96653.31;4996815;28;20218;-69
2021/10/12 06:04:41;;;;;;;62.77;23.40;;;;;;;10.97;91.16;96657.47;4995791;28;20227;-69
2021/10/12 06:07:07;;;;;;;62.60;25.17;;;;;;;11.11;91.03;96659.44;4996127;28;20214;-69
2021/10/12 06:09:34;;;;;;;62.73;24.47;;;;;;;11.20;90.44;96653.13;4996257;28;20213;-69
2021/10/12 06:12:00;;;;;;;62.40;23.30;;;;;;;11.13;90.79;96667.97;4997188;28;20207;-70
2021/10/12 06:14:28;;;;;;;60.17;22.83;;;;;;;11.27;90.61;96658.53;4996548;28;20284;-69
2021/10/12 06:16:54;;;;;;;57.90;22.63;;;;;;;10.94;90.93;96670.19;4996809;28;20218;-69
2021/10/12 06:19:21;;;;;;;61.27;24.07;;;;;;;10.94;91.43;96662.25;4996550;28;21034;-69
2021/10/12 06:21:49;;;;;;;62.60;23.13;;;;;;;11.11;90.70;96669.97;4996216;28;20230;-69
2021/10/12 06:24:15;;;;;;;58.17;22.83;;;;;;;11.32;89.92;96678.13;4996936;28;20226;-69
2021/10/12 06:26:42;;;;;;;58.50;22.57;;;;;;;11.15;90.80;96680.97;4995233;28;20200;-69
2021/10/12 06:29:08;;;;;;;57.40;21.87;;;;;;;11.06;91.30;96688.13;4996763;28;20210;-69
2021/10/12 06:31:36;;;;;;;54.40;22.17;;;;;;;11.43;91.06;96690.97;4997983;28;20202;-69
2021/10/12 06:34:03;;;;;;;56.87;22.83;;;;;;;11.06;90.96;96693.38;4999990;28;20238;-69
2021/10/12 06:36:30;;;;;;;53.20;21.77;;;;;;;11.09;91.68;96685.13;4999244;28;20209;-69
2021/10/12 06:38:57;;;;;;;48.70;21.13;;;;;;;11.02;91.88;96685.97;4999960;28;20242;-69
2021/10/12 06:41:23;;;;;;;53.80;20.27;;;;;;;11.04;91.74;96687.44;4997764;28;20207;-69
2021/10/12 06:43:50;;;;;;;38.27;15.90;;;;;;;10.73;93.36;96690.16;4999624;28;20226;-69
2021/10/12 06:46:16;;;;;;;48.87;20.53;;;;;;;10.79;93.75;96692.13;4999154;28;20206;-69
2021/10/12 06:48:44;;;;;;;53.50;19.37;;;;;;;10.99;94.48;96692.41;5000072;28;20199;-69
2021/10/12 06:51:10;;;;;;;52.10;20.90;;;;;;;10.73;94.06;96690.16;4999395;28;20207;-69
2021/10/12 06:53:39;;;;;;;52.37;21.30;;;;;;;10.88;93.67;96686.66;4999787;28;20241;-69
2021/10/12 06:56:06;;;;;;;50.77;19.40;;;;;;;10.65;94.53;96688.34;4999064;28;20264;-69
2021/10/12 06:58:32;;;;;;;60.23;21.73;;;;;;;10.83;94.16;96685.53;4999916;28;20213;-69
2021/10/12 07:00:59;;;;;;;57.47;22.30;;;;;;;11.00;93.80;96688.78;4999591;28;20206;-69
2021/10/12 07:03:25;;;;;;;55.60;21.37;;;;;;;11.00;93.76;96683.50;4999318;28;20195;-69
2021/10/12 07:05:53;;;;;;;52.80;21.17;;;;;;;11.13;94.61;96683.78;4998782;28;20230;-69
2021/10/12 07:08:20;;;;;;;53.37;21.60;;;;;;;10.95;94.05;96685.81;4999148;28;20214;-69
2021/10/12 07:10:46;;;;;;;49.40;21.13;;;;;;;10.91;94.74;96682.88;4999271;28;20210;-69
2021/10/12 07:13:13;;;;;;;58.40;21.60;;;;;;;11.12;94.42;96697.97;4999744;28;20230;-69
2021/10/12 07:15:41;;;;;;;56.07;20.00;;;;;;;11.07;94.32;96689.78;4998602;28;21019;-69
2021/10/12 07:18:11;;;;;;;52.03;20.13;;;;;;;10.82;95.55;96687.34;4999088;28;20229;-69
2021/10/12 07:20:39;;;;;;;58.00;19.63;;;;;;;10.81;95.97;96695.44;4999089;28;20202;-69
2021/10/12 07:23:08;;;;;;;58.93;20.20;;;;;;;11.14;95.61;96693.38;4999207;28;20214;-69
2021/10/12 07:25:34;;;;;;;48.00;19.43;;;;;;;10.83;95.88;96694.25;4998405;28;20781;-69
2021/10/12 07:28:00;;;;;;;50.10;18.93;;;;;;;10.82;96.49;96694.41;4999195;28;20215;-69
2021/10/12 07:30:27;;;;;;;52.23;20.03;;;;;;;10.97;96.18;96694.41;4998837;28;20451;-69
2021/10/12 07:32:53;;;;;;;53.07;21.87;;;;;;;11.14;95.27;96696.00;4998856;28;20202;-70
2021/10/12 07:35:20;;;;;;;51.63;20.67;;;;;;;11.07;96.32;96686.28;4999210;28;20223;-70
2021/10/12 07:37:46;;;;;;;48.60;20.10;;;;;;;10.97;96.52;96689.13;4998180;28;20229;-69
2021/10/12 07:40:14;;;;;;;45.77;16.53;;;;;;;11.18;96.17;96692.03;4998586;28;20213;-69
2021/10/12 07:42:41;;;;;;;48.37;20.27;;;;;;;11.04;96.30;96690.09;4996537;28;20206;-69
2021/10/12 07:45:08;;;;;;;55.13;20.33;;;;;;;11.32;95.92;96687.88;4999379;28;20229;-69
2021/10/12 07:47:35;;;;;;;37.13;14.30;;;;;;;10.87;96.83;96682.41;4997667;28;20205;-69
2021/10/12 07:50:02;;;;;;;33.73;13.00;;;;;;;10.86;95.12;96690.44;4998876;28;20203;-69
2021/10/12 07:52:30;;;;;;;34.33;13.13;;;;;;;10.91;94.73;96688.13;4999437;28;20204;-69
2021/10/12 07:55:12;;;;;;;32.93;13.13;;;;;;;10.95;95.08;96691.09;4998578;28;20607;-69
2021/10/12 07:57:40;;;;;;;33.10;14.10;;;;;;;11.16;95.11;96691.38;4998043;28;20292;-69
2021/10/12 08:00:09;;;;;;;35.20;13.93;;;;;;;11.24;94.97;96690.50;4998289;28;20202;-69
2021/10/12 08:02:35;;;;;;;34.80;15.10;;;;;;;11.11;95.25;96688.44;4998280;28;20203;-69
2021/10/12 08:05:02;;;;;;;36.07;16.13;;;;;;;11.35;94.71;96683.06;4997671;28;20223;-69
2021/10/12 08:07:28;;;;;;;33.73;9.97;;;;;;;11.04;96.08;96690.09;4998138;28;20209;-69
2021/10/12 08:09:57;;;;;;;28.67;13.77;;;;;;;11.00;96.52;96683.50;4998306;28;20202;-69
2021/10/12 08:12:24;;;;;;;45.70;16.13;;;;;;;10.81;96.73;96682.25;4997559;28;20221;-69
2021/10/12 08:14:58;;;;;;;34.07;13.37;;;;;;;11.14;96.86;96682.81;4998118;28;20262;-69
2021/10/12 08:17:24;;;;;;;31.50;12.53;;;;;;;11.02;94.90;96680.69;4997420;28;20241;-69
2021/10/12 08:19:51;;;;;;;25.93;10.20;;;;;;;10.94;94.68;96688.63;4998219;28;20229;-69
2021/10/12 08:22:17;;;;;;;30.67;12.40;;;;;;;10.93;95.95;96682.56;4997703;28;20207;-69
2021/10/12 08:24:44;;;;;;;27.70;11.37;;;;;;;11.25;94.86;96682.47;4998289;28;20221;-69
2021/10/12 08:27:10;;;;;;;22.30;8.07;;;;;;;11.11;92.18;96685.81;4997250;28;20217;-69
2021/10/12 08:29:37;;;;;;;17.30;7.57;;;;;;;11.32;90.58;96680.75;4998079;28;20199;-69
2021/10/12 08:32:05;;;;;;;20.97;8.17;;;;;;;11.71;90.64;96674.53;4997956;28;20206;-69
2021/10/12 08:34:32;;;;;;;15.10;5.93;;;;;;;11.48;89.27;96672.81;4998068;28;20226;-69
2021/10/12 08:36:58;;;;;;;13.80;6.00;;;;;;;11.37;89.15;96681.09;4996770;28;20214;-69
2021/10/12 08:39:30;;;;;;;14.90;6.77;;;;;;;11.48;88.14;96670.16;4998567;28;20199;-69
2021/10/12 08:42:03;;;;;;;20.57;5.47;;;;;;;11.67;88.28;96659.19;4994416;28;20738;-69
2021/10/12 08:44:29;;;;;;;13.33;6.00;;;;;;;11.76;88.80;96666.06;4997690;28;20218;-69
2021/10/12 08:46:56;;;;;;;14.13;5.67;;;;;;;11.66;86.41;96665.50;4997252;28;20206;-69
2021/10/12 08:49:24;;;;;;;13.97;6.17;;;;;;;11.94;88.03;96663.97;4997683;28;20206;-69
2021/10/12 08:51:50;;;;;;;12.67;4.50;;;;;;;11.44;86.28;96668.03;4997283;28;20751;-69
2021/10/12 08:54:17;;;;;;;10.30;4.87;;;;;;;11.38;89.10;96661.63;4996111;28;20284;-68
2021/10/12 08:56:44;;;;;;;13.77;5.03;;;;;;;11.52;89.94;96657.44;4997069;28;20301;-70
2021/10/12 08:59:10;;;;;;;12.83;5.60;;;;;;;11.80;88.99;96646.22;4998434;28;20207;-70
2021/10/12 09:01:55;;;;;;;10.57;5.47;;;;;;;12.54;87.85;96645.34;4997111;28;20198;-70
2021/10/12 09:04:22;;;;;;;11.80;4.50;;;;;;;11.97;84.43;96647.78;4997259;28;20223;-70
2021/10/12 09:06:55;;;;;;;11.47;5.00;;;;;;;12.54;84.43;96642.69;4997102;28;20203;-70
2021/10/12 09:09:34;;;;;;;11.70;4.80;;;;;;;12.70;85.42;96641.72;4996983;28;20685;-70
2021/10/12 09:12:00;;;;;;;11.33;4.33;;;;;;;12.42;83.32;96638.84;4997827;28;20206;-70
2021/10/12 09:14:27;;;;;;;12.83;4.87;;;;;;;12.39;85.21;96644.47;4996902;28;20698;-70
2021/10/12 09:17:04;;;;;;;10.17;4.37;;;;;;;12.24;84.82;96630.41;4995942;28;20214;-70
2021/10/12 09:19:33;;;;;;;9.20;4.37;;;;;;;12.19;84.40;96634.56;4997252;28;20198;-70
2021/10/12 09:22:05;;;;;;;12.67;4.83;;;;;;;12.48;85.01;96632.84;4997439;28;20695;-69
2021/10/12 09:24:39;;;;;;;11.40;4.70;;;;;;;12.30;87.02;96628.88;4996896;28;20272;-70
2021/10/12 09:27:08;;;;;;;10.03;4.70;;;;;;;12.29;86.35;96632.50;4996607;28;20198;-70
2021/10/12 09:29:36;;;;;;;7.00;3.97;;;;;;;11.74;86.00;96631.13;4997091;28;20252;-70
2021/10/12 09:32:04;;;;;;;8.77;3.80;;;;;;;11.85;87.64;96631.53;4996812;28;20209;-70
2021/10/12 09:34:31;;;;;;;5.93;3.00;;;;;;;11.64;86.03;96630.50;4996955;28;20322;-70
2021/10/12 09:36:59;;;;;;;5.80;3.20;;;;;;;11.79;86.06;96626.13;4996511;28;20249;-69
2021/10/12 09:39:34;;;;;;;8.70;3.40;;;;;;;12.14;86.74;96617.63;4996128;28;20210;-69
2021/10/12 09:42:04;;;;;;;6.63;3.40;;;;;;;11.80;88.61;96619.84;4993007;28;20202;-69
2021/10/12 09:44:30;;;;;;;8.10;3.13;;;;;;;11.61;87.91;96615.03;4996714;28;20218;-69
2021/10/12 09:47:07;;;;;;;5.23;2.33;;;;;;;11.91;87.35;96612.31;4996076;28;20206;-70
2021/10/12 09:49:33;;;;;;;10.03;3.90;;;;;;;11.65;88.52;96613.69;4996833;28;20210;-70
2021/10/12 09:52:02;;;;;;;6.27;2.80;;;;;;;11.66;88.53;96613.50;4997323;28;20210;-70
2021/10/12 09:54:30;;;;;;;6.83;2.90;;;;;;;11.70;88.70;96609.50;4996829;28;20233;-69
2021/10/12 09:57:00;;;;;;;5.47;3.00;;;;;;;11.75;88.50;96611.63;4994868;28;20206;-69
2021/10/12 09:59:27;;;;;;;7.00;2.80;;;;;;;11.55;88.49;96608.59;4996797;28;20580;-69
2021/10/12 10:01:55;;;;;;;8.17;3.30;;;;;;;11.56;87.57;96604.16;4996645;28;20203;-70
2021/10/12 10:04:22;;;;;;;7.97;3.00;;;;;;;11.65;87.44;96597.84;4996290;28;20230;-69
2021/10/12 10:06:51;;;;;;;7.60;3.50;;;;;;;11.71;88.22;96587.41;4998515;28;20225;-69
2021/10/12 10:09:20;;;;;;;8.30;4.37;;;;;;;11.88;89.05;96583.63;5001560;28;20206;-69
2021/10/12 10:11:47;;;;;;;8.97;4.30;;;;;;;11.84;88.62;96577.06;4999955;28;20206;-70
2021/10/12 10:14:16;;;;;;;10.40;4.90;;;;;;;11.81;88.57;96577.44;4999955;28;20241;-70
2021/10/12 10:16:45;;;;;;;9.53;4.63;;;;;;;11.88;89.38;96575.72;4999194;28;20218;-69
2021/10/12 10:19:15;;;;;;;9.67;4.73;;;;;;;11.90;88.86;96572.91;5000346;28;20294;-69
2021/10/12 10:21:46;;;;;;;8.37;4.27;;;;;;;11.92;87.90;96569.09;4999664;28;20667;-70
2021/10/12 10:24:20;;;;;;;9.00;3.97;;;;;;;11.83;87.82;96566.69;4999900;28;20313;-69
2021/10/12 10:26:47;;;;;;;10.87;4.43;;;;;;;11.66;87.10;96570.47;4999179;28;20198;-69
2021/10/12 10:29:27;;;;;;;10.67;4.70;;;;;;;12.10;87.77;96563.50;4999810;28;20218;-70
2021/10/12 10:31:56;;;;;;;14.30;3.83;;;;;;;11.87;89.02;96567.97;5000507;28;20207;-69
2021/10/12 10:34:34;;;;;;;7.80;3.70;;;;;;;11.96;87.83;96564.28;4999551;28;20603;-69
2021/10/12 10:37:29;;;;;;;6.57;3.63;;;;;;;12.13;87.03;96561.34;4998731;28;20202;-69
2021/10/12 10:39:58;;;;;;;8.27;3.80;;;;;;;11.83;88.71;96556.13;5000421;28;20671;-70
2021/10/12 10:43:06;;;;;;;7.77;3.93;;;;;;;12.16;88.09;96560.97;4996319;28;20206;-69
2021/10/12 10:45:45;;;;;;;8.40;4.17;;;;;;;12.19;87.01;96553.50;4999233;28;20237;-70
2021/10/12 10:48:13;;;;;;;12.20;4.23;;;;;;;11.89;87.44;96553.59;4999444;28;20225;-69
2021/10/12 10:50:39;;;;;;;7.40;3.77;;;;;;;11.59;87.07;96540.47;5000007;28;20245;-69
2021/10/12 10:53:09;;;;;;;11.97;4.90;;;;;;;12.11;86.81;96544.81;4999137;28;20202;-70
2021/10/12 10:55:37;;;;;;;11.47;4.40;;;;;;;11.74;86.02;96541.34;4999086;28;20285;-69
2021/10/12 10:58:05;;;;;;;8.50;4.00;;;;;;;11.81;86.16;96543.13;4999706;28;20679;-69
2021/10/12 11:00:47;;;;;;;9.23;3.90;;;;;;;11.98;86.72;96528.78;4999483;28;20206;-70
2021/10/12 11:03:35;;;;;;;9.63;4.30;;;;;;;12.21;85.86;96525.06;4998590;28;20217;-69
2021/10/12 11:06:02;;;;;;;12.73;4.57;;;;;;;12.00;85.81;96525.94;4999386;28;20207;-70
2021/10/12 11:08:32;;;;;;;11.13;4.53;;;;;;;12.07;87.24;96516.31;4999032;28;20214;-70
2021/10/12 11:11:00;;;;;;;14.57;4.90;;;;;;;12.04;87.58;96516.66;4999161;28;20210;-70
2021/10/12 11:13:28;;;;;;;12.67;5.40;;;;;;;12.18;87.16;96512.22;4999356;28;20202;-70
2021/10/12 11:15:56;;;;;;;13.13;5.23;;;;;;;12.18;87.12;96508.75;4997933;28;20318;-70
2021/10/12 11:18:23;;;;;;;14.93;4.93;;;;;;;12.24;87.04;96505.41;4998707;28;20203;-70
2021/10/12 11:20:52;;;;;;;14.33;5.77;;;;;;;12.21;86.70;96503.94;5000025;28;20219;-69
2021/10/12 11:23:24;;;;;;;13.50;5.67;;;;;;;12.44;86.02;96498.59;4997811;28;20568;-70